Pejucara, Brazil
Current Conditions -  °F | °C
As of 12:00 PM on Thursday 29 Jan 2015 (Local Time) from SBSM Reporting Station
Light Rain Light Rain  
Wind Chill: 70°   Ceiling: 1000
Heat Index: 70°   Visibility: 1.8mi
Dew Point: 68°   Wind: 2mph
Humidity: 94%   Direction: NA
Pressure: 29.91"   Gusts: NA
Location:  28.4°S, 53.71°W
Report Text: SBSM 291400Z VRB02KT 3000 -RA FEW007 BKN010 BKN040 21/20 Q1013
Loading
Personal Weather Stations






























Interactive Weather Map New forecast layout! Learn more

10-Day Weather Forecast

Advertisements
Track Severe Weather on mobile